createdAt,value
2023-05-05T00:00:13.650Z,53.20
2023-05-05T00:02:40.193Z,54.54
2023-05-05T00:05:07.740Z,53.81
2023-05-05T00:07:36.340Z,55.25
2023-05-05T00:10:02.928Z,54.45
2023-05-05T00:12:30.546Z,54.96
2023-05-05T00:14:57.129Z,53.89
2023-05-05T00:17:24.732Z,54.19
2023-05-05T00:19:52.292Z,53.52
2023-05-05T00:22:19.902Z,53.58
2023-05-05T00:24:46.767Z,53.93
2023-05-05T00:27:13.238Z,53.69
2023-05-05T00:29:39.659Z,52.92
2023-05-05T00:32:06.071Z,51.50
2023-05-05T00:34:33.807Z,52.60
2023-05-05T00:37:00.412Z,53.57
2023-05-05T00:39:27.024Z,53.64
2023-05-05T00:41:55.650Z,54.10
2023-05-05T00:44:24.221Z,53.08
2023-05-05T00:46:51.855Z,53.47
2023-05-05T00:49:19.409Z,53.19
2023-05-05T00:51:47.004Z,52.63
2023-05-05T00:54:13.584Z,51.93
2023-05-05T00:56:40.161Z,51.00
2023-05-05T00:59:07.764Z,51.41
2023-05-05T01:01:34.420Z,50.25
2023-05-05T01:04:02.025Z,50.15
2023-05-05T01:06:29.540Z,50.11
2023-05-05T01:08:57.109Z,50.86
2023-05-05T01:11:23.739Z,51.78
2023-05-05T01:13:50.308Z,51.46
2023-05-05T01:16:18.916Z,51.38
2023-05-05T01:18:46.517Z,51.20
2023-05-05T01:21:13.083Z,52.56
2023-05-05T01:23:40.679Z,52.30
2023-05-05T01:26:07.288Z,51.98
2023-05-05T01:28:34.865Z,50.96
2023-05-05T01:31:02.480Z,52.32
2023-05-05T01:33:29.061Z,53.17
2023-05-05T01:35:55.677Z,53.06
2023-05-05T01:38:22.495Z,52.10
2023-05-05T01:40:49.850Z,54.43
2023-05-05T01:43:16.481Z,54.21
2023-05-05T01:45:43.080Z,52.70
2023-05-05T01:48:09.672Z,51.58
2023-05-05T01:50:36.258Z,52.35
2023-05-05T01:53:03.116Z,53.03
2023-05-05T01:55:30.439Z,52.46
2023-05-05T01:57:58.029Z,52.93
2023-05-05T02:00:26.654Z,53.22
2023-05-05T02:02:54.302Z,52.75
2023-05-05T02:05:21.797Z,53.55
2023-05-05T02:07:48.245Z,54.04
2023-05-05T02:10:14.659Z,54.17
2023-05-05T02:12:41.152Z,54.61
2023-05-05T02:15:08.225Z,54.52
2023-05-05T02:17:35.836Z,54.21
2023-05-05T02:20:03.397Z,56.87
2023-05-05T02:22:29.985Z,57.90
2023-05-05T02:24:56.600Z,58.68
2023-05-05T02:27:23.177Z,58.22
2023-05-05T02:29:51.771Z,59.60
2023-05-05T02:32:18.347Z,56.76
2023-05-05T02:34:45.948Z,59.20
2023-05-05T02:37:12.552Z,60.32
2023-05-05T02:39:40.125Z,60.71
2023-05-05T02:42:06.709Z,61.37
2023-05-05T02:44:34.310Z,59.28
2023-05-05T02:47:01.900Z,59.63
2023-05-05T02:49:29.482Z,60.15
2023-05-05T02:51:56.096Z,59.79
2023-05-05T02:54:22.679Z,60.26
2023-05-05T02:56:50.263Z,59.82
2023-05-05T02:59:17.848Z,59.76
2023-05-05T03:01:45.487Z,59.59
2023-05-05T03:04:11.987Z,60.03
2023-05-05T03:06:38.414Z,59.62
2023-05-05T03:09:04.836Z,60.39
2023-05-05T03:11:31.285Z,62.28
2023-05-05T03:13:57.705Z,62.59
2023-05-05T03:16:24.148Z,61.37
2023-05-05T03:18:50.585Z,61.06
2023-05-05T03:21:17.023Z,61.54
2023-05-05T03:23:43.764Z,62.40
2023-05-05T03:26:11.365Z,60.96
2023-05-05T03:28:37.933Z,61.99
2023-05-05T03:31:06.530Z,62.80
2023-05-05T03:33:32.992Z,62.76
2023-05-05T03:35:59.717Z,62.68
2023-05-05T03:38:28.322Z,62.05
2023-05-05T03:40:55.913Z,63.10
2023-05-05T03:43:22.495Z,62.48
2023-05-05T03:45:49.125Z,62.24
2023-05-05T03:48:17.684Z,62.43
2023-05-05T03:50:46.421Z,61.82
2023-05-05T03:53:13.869Z,62.78
2023-05-05T03:55:41.461Z,62.74
2023-05-05T03:58:08.033Z,63.25
2023-05-05T04:00:36.638Z,63.12
2023-05-05T04:03:04.354Z,63.37
2023-05-05T04:05:31.823Z,62.70
2023-05-05T04:07:58.449Z,63.52
2023-05-05T04:10:25.268Z,62.37
2023-05-05T04:12:52.677Z,63.03
2023-05-05T04:15:20.185Z,61.92
2023-05-05T04:17:46.804Z,62.93
2023-05-05T04:20:13.679Z,63.91
2023-05-05T04:22:40.098Z,62.79
2023-05-05T04:25:06.524Z,62.34
2023-05-05T04:27:32.982Z,62.50
2023-05-05T04:29:59.491Z,62.16
2023-05-05T04:32:25.950Z,63.62
2023-05-05T04:34:52.422Z,63.05
2023-05-05T04:37:19.515Z,64.13
2023-05-05T04:39:47.044Z,64.20
2023-05-05T04:42:13.621Z,65.13
2023-05-05T04:44:40.232Z,63.58
2023-05-05T04:47:06.736Z,63.72
2023-05-05T04:49:33.144Z,64.12
2023-05-05T04:51:59.623Z,65.04
2023-05-05T04:54:26.604Z,64.77
2023-05-05T04:56:54.206Z,64.90
2023-05-05T04:59:21.780Z,64.95
2023-05-05T05:01:50.448Z,63.41
2023-05-05T05:04:16.906Z,64.07
2023-05-05T05:06:43.339Z,61.75
2023-05-05T05:09:09.754Z,63.21
2023-05-05T05:11:37.841Z,63.53
2023-05-05T05:14:05.386Z,62.81
2023-05-05T05:16:34.012Z,62.38
2023-05-05T05:19:01.886Z,63.41
2023-05-05T05:21:28.508Z,63.17
2023-05-05T05:23:54.956Z,63.64
2023-05-05T05:26:21.372Z,63.84
2023-05-05T05:28:47.954Z,65.17
2023-05-05T05:31:16.554Z,64.79
2023-05-05T05:33:43.145Z,63.64
2023-05-05T05:36:10.729Z,62.71
2023-05-05T05:38:37.319Z,59.98
2023-05-05T05:41:03.895Z,61.98
2023-05-05T05:43:30.472Z,62.04
2023-05-05T05:45:57.135Z,61.94
2023-05-05T05:48:24.678Z,61.02
2023-05-05T05:50:52.244Z,62.18
2023-05-05T05:53:18.832Z,60.77
2023-05-05T05:55:45.279Z,62.02
2023-05-05T05:58:12.000Z,62.72
2023-05-05T06:00:38.600Z,61.28
2023-05-05T06:03:05.308Z,61.15
2023-05-05T06:05:32.765Z,60.39
2023-05-05T06:07:59.424Z,61.46
2023-05-05T06:10:28.247Z,62.77
2023-05-05T06:12:55.618Z,62.23
2023-05-05T06:15:23.185Z,62.07
2023-05-05T06:17:50.785Z,61.85
2023-05-05T06:20:18.372Z,61.13
2023-05-05T06:22:45.917Z,60.02
2023-05-05T06:25:12.596Z,60.09
2023-05-05T06:27:39.155Z,60.10
2023-05-05T06:30:08.029Z,60.75
2023-05-05T06:32:35.425Z,61.04
2023-05-05T06:35:03.018Z,61.61
2023-05-05T06:37:30.641Z,61.69
2023-05-05T06:39:57.254Z,59.58
2023-05-05T06:42:25.833Z,60.61
2023-05-05T06:44:54.753Z,61.32
2023-05-05T06:47:21.180Z,60.36
2023-05-05T06:49:50.105Z,59.38
2023-05-05T06:52:17.194Z,60.93
2023-05-05T06:54:43.784Z,62.40
2023-05-05T06:57:11.416Z,61.76
2023-05-05T06:59:37.851Z,61.53
2023-05-05T07:02:04.351Z,61.52
2023-05-05T07:04:30.823Z,60.71
2023-05-05T07:06:57.894Z,61.11
2023-05-05T07:09:25.340Z,60.50
2023-05-05T07:11:53.947Z,59.20
2023-05-05T07:14:24.164Z,61.21
2023-05-05T07:16:51.192Z,60.91
2023-05-05T07:19:18.741Z,61.42
2023-05-05T07:21:47.325Z,59.56
2023-05-05T07:24:13.902Z,59.91
2023-05-05T07:26:40.486Z,58.69
2023-05-05T07:29:07.100Z,58.29
2023-05-05T07:31:34.970Z,59.63
2023-05-05T07:39:48.633Z,63.34
2023-05-05T07:42:18.449Z,63.07
2023-05-05T07:50:27.216Z,61.65
2023-05-05T07:53:02.493Z,60.96
2023-05-05T07:55:42.756Z,60.01
2023-05-05T07:58:19.520Z,58.33
2023-05-05T08:17:02.575Z,55.50
2023-05-05T08:19:30.335Z,54.87
2023-05-05T08:27:27.613Z,54.76
2023-05-05T08:32:39.501Z,51.94
2023-05-05T08:43:08.139Z,52.91
2023-05-05T08:45:40.009Z,53.69
2023-05-05T08:56:11.369Z,52.39
2023-05-05T08:58:41.184Z,52.41
2023-05-05T09:06:39.309Z,49.80
2023-05-05T09:11:51.263Z,50.46
2023-05-05T09:17:12.377Z,50.33
2023-05-05T09:19:55.470Z,48.69
2023-05-05T09:25:11.273Z,48.91
2023-05-05T09:33:08.601Z,47.84
2023-05-05T09:38:20.337Z,46.36
2023-05-05T09:40:54.121Z,46.96
2023-05-05T09:43:43.462Z,46.79
2023-05-05T09:49:02.323Z,46.95
2023-05-05T09:51:51.303Z,47.63
2023-05-05T09:54:19.282Z,47.08
2023-05-05T09:59:35.574Z,46.55
2023-05-05T10:04:52.516Z,46.02
2023-05-05T10:18:12.998Z,45.97
2023-05-05T10:31:37.459Z,46.38
2023-05-05T10:34:07.152Z,45.76
2023-05-05T10:42:17.866Z,47.32
2023-05-05T10:47:25.234Z,45.63
2023-05-05T10:55:30.925Z,44.92
2023-05-05T11:00:46.496Z,45.08
2023-05-05T11:03:36.891Z,45.12
2023-05-05T11:06:08.511Z,45.48
2023-05-05T11:08:47.970Z,42.61
2023-05-05T11:11:41.141Z,43.30
2023-05-05T11:14:10.673Z,44.34
2023-05-05T11:16:40.631Z,43.91
2023-05-05T11:22:05.019Z,45.22
2023-05-05T11:27:21.692Z,43.87
2023-05-05T11:29:58.399Z,42.15
2023-05-05T11:40:44.160Z,41.56
2023-05-05T11:45:54.122Z,41.40
2023-05-05T11:51:03.630Z,38.57
2023-05-05T11:53:38.139Z,39.65
2023-05-05T11:56:05.847Z,39.92
2023-05-05T11:58:35.509Z,39.09
2023-05-05T12:01:05.017Z,38.35
2023-05-05T12:03:33.738Z,40.16
2023-05-05T12:06:05.087Z,39.66
2023-05-05T12:08:33.838Z,40.15
2023-05-05T12:11:02.880Z,41.25
2023-05-05T12:13:32.045Z,41.35
2023-05-05T12:16:09.656Z,39.94
2023-05-05T12:18:37.265Z,39.92
2023-05-05T12:21:07.309Z,38.66
2023-05-05T12:23:36.469Z,39.21
2023-05-05T12:26:07.994Z,36.95
2023-05-05T12:31:15.446Z,38.42
2023-05-05T12:33:42.908Z,40.54
2023-05-05T12:36:09.783Z,37.12
2023-05-05T12:38:38.103Z,39.57
2023-05-05T12:41:06.716Z,39.35
2023-05-05T12:43:34.628Z,39.00
2023-05-05T12:46:03.530Z,40.29
2023-05-05T12:48:30.470Z,39.87
2023-05-05T12:50:58.096Z,42.30
2023-05-05T12:53:25.650Z,43.17
2023-05-05T12:55:52.254Z,45.36
2023-05-05T12:58:19.848Z,46.85
2023-05-05T13:00:48.468Z,46.61
2023-05-05T13:03:16.087Z,46.72
2023-05-05T13:05:43.630Z,56.69
2023-05-05T13:08:10.263Z,53.59
2023-05-05T13:10:39.240Z,55.53
2023-05-05T13:13:06.590Z,61.48
2023-05-05T13:15:34.145Z,65.94
2023-05-05T13:18:01.952Z,72.40
2023-05-05T13:20:29.399Z,73.06
2023-05-05T13:22:56.059Z,77.07
2023-05-05T13:25:23.647Z,77.19
2023-05-05T13:27:50.540Z,76.63
2023-05-05T13:30:17.901Z,78.43
2023-05-05T13:32:45.522Z,80.00
2023-05-05T13:35:15.983Z,79.75
2023-05-05T13:37:43.705Z,80.72
2023-05-05T13:40:11.283Z,85.95
2023-05-05T13:42:43.875Z,89.71
2023-05-05T13:51:21.905Z,85.81
2023-05-05T14:24:36.992Z,71.89
2023-05-05T14:27:12.908Z,71.41
2023-05-05T14:32:33.713Z,71.82
2023-05-05T14:35:00.634Z,71.08
2023-05-05T14:37:31.011Z,68.70
2023-05-05T14:40:09.817Z,69.76
2023-05-05T14:42:37.714Z,71.22
2023-05-05T14:45:07.544Z,70.94
2023-05-05T14:47:42.001Z,66.73
2023-05-05T14:50:14.395Z,69.50
2023-05-05T14:52:43.555Z,66.30
2023-05-05T14:55:12.643Z,65.71
2023-05-05T14:57:41.917Z,66.67
2023-05-05T15:00:09.734Z,63.92
2023-05-05T15:02:38.377Z,63.39
2023-05-05T15:05:08.171Z,64.83
2023-05-05T15:07:35.571Z,61.69
2023-05-05T15:10:05.332Z,61.15
2023-05-05T15:12:32.743Z,60.41
2023-05-05T15:15:02.027Z,63.32
2023-05-05T15:17:29.972Z,59.45
2023-05-05T15:19:59.036Z,58.41
2023-05-05T15:22:27.193Z,55.27
2023-05-05T15:24:56.184Z,55.16
2023-05-05T15:27:24.415Z,53.33
2023-05-05T15:29:53.575Z,55.46
2023-05-05T15:32:20.820Z,55.86
2023-05-05T15:34:49.003Z,50.46
2023-05-05T15:37:18.743Z,48.24
2023-05-05T15:39:47.340Z,49.35
2023-05-05T15:42:15.156Z,48.57
2023-05-05T15:44:42.526Z,45.36
2023-05-05T15:47:10.154Z,47.20
2023-05-05T15:49:38.709Z,47.47
2023-05-05T15:52:06.278Z,49.93
2023-05-05T15:54:33.930Z,47.85
2023-05-05T15:57:01.467Z,48.69
2023-05-05T15:59:29.066Z,48.32
2023-05-05T16:01:57.635Z,50.74
2023-05-05T16:04:26.250Z,49.82
2023-05-05T16:06:54.879Z,50.34
2023-05-05T16:09:23.451Z,50.59
2023-05-05T16:11:51.098Z,50.56
2023-05-05T16:14:18.647Z,51.32
2023-05-05T16:16:48.289Z,51.56
2023-05-05T16:19:16.880Z,50.42
2023-05-05T16:21:44.452Z,49.83
2023-05-05T16:24:13.062Z,52.30
2023-05-05T16:26:40.653Z,51.08
2023-05-05T16:29:08.256Z,51.20
2023-05-05T16:31:35.887Z,51.56
2023-05-05T16:34:03.466Z,51.42
2023-05-05T16:36:29.923Z,50.18
2023-05-05T16:38:57.667Z,51.14
2023-05-05T16:41:26.778Z,52.13
2023-05-05T16:43:53.848Z,52.80
2023-05-05T16:46:20.385Z,55.95
2023-05-05T16:48:47.025Z,51.70
2023-05-05T16:51:14.636Z,48.79
2023-05-05T16:53:42.203Z,51.86
2023-05-05T16:56:09.873Z,52.19
2023-05-05T16:58:38.812Z,50.93
2023-05-05T17:01:06.049Z,48.19
2023-05-05T17:03:34.994Z,49.14
2023-05-05T17:06:02.315Z,52.37
2023-05-05T17:08:29.910Z,46.41
2023-05-05T17:10:59.153Z,49.71
2023-05-05T17:13:27.038Z,47.66
2023-05-05T17:15:55.924Z,47.22
2023-05-05T17:18:25.246Z,52.41
2023-05-05T17:20:51.965Z,52.02
2023-05-05T17:23:19.591Z,50.54
2023-05-05T17:25:47.144Z,51.86
2023-05-05T17:28:14.752Z,51.12
2023-05-05T17:30:41.870Z,50.98
2023-05-05T17:33:08.384Z,47.14
2023-05-05T17:35:35.861Z,44.56
2023-05-05T17:38:03.465Z,44.56
2023-05-05T17:40:30.062Z,45.15
2023-05-05T17:42:58.464Z,47.91
2023-05-05T17:45:26.051Z,52.84
2023-05-05T17:47:55.446Z,47.44
2023-05-05T17:50:22.326Z,49.00
2023-05-05T17:52:49.870Z,48.42
2023-05-05T17:55:16.496Z,47.59
2023-05-05T17:57:45.106Z,47.86
2023-05-05T18:00:11.712Z,48.23
2023-05-05T18:02:46.044Z,48.37
2023-05-05T18:05:13.920Z,49.67
2023-05-05T18:07:41.511Z,49.61
2023-05-05T18:10:09.097Z,48.60
2023-05-05T18:12:36.745Z,53.43
2023-05-05T18:15:03.665Z,52.46
2023-05-05T18:17:30.948Z,49.57
2023-05-05T18:19:58.536Z,53.36
2023-05-05T18:22:25.343Z,50.15
2023-05-05T18:24:52.716Z,49.51
2023-05-05T18:27:20.355Z,50.27
2023-05-05T18:29:47.893Z,50.50
2023-05-05T18:32:15.486Z,49.69
2023-05-05T18:34:44.137Z,50.23
2023-05-05T18:37:11.691Z,51.51
2023-05-05T18:39:39.336Z,52.62
2023-05-05T18:42:06.917Z,53.27
2023-05-05T18:44:34.512Z,54.67
2023-05-05T18:47:02.221Z,55.15
2023-05-05T18:49:31.266Z,55.29
2023-05-05T18:51:58.334Z,57.34
2023-05-05T18:54:24.934Z,55.41
2023-05-05T18:56:51.504Z,56.54
2023-05-05T18:59:19.110Z,56.11
2023-05-05T19:01:46.701Z,55.31
2023-05-05T19:04:27.175Z,55.40
2023-05-05T19:06:58.048Z,54.05
2023-05-05T19:09:25.634Z,52.62
2023-05-05T19:11:52.211Z,53.69
2023-05-05T19:14:21.201Z,55.23
2023-05-05T19:16:48.445Z,57.23
2023-05-05T19:19:15.977Z,56.63
2023-05-05T19:21:43.550Z,57.34
2023-05-05T19:24:11.152Z,57.36
2023-05-05T19:26:38.732Z,53.74
2023-05-05T19:29:06.350Z,54.10
2023-05-05T19:31:33.227Z,52.99
2023-05-05T19:34:00.521Z,53.17
2023-05-05T19:36:28.117Z,55.03
2023-05-05T19:38:55.699Z,53.46
2023-05-05T19:41:22.311Z,51.51
2023-05-05T19:43:50.909Z,52.30
2023-05-05T19:46:18.507Z,52.38
2023-05-05T19:48:47.093Z,54.10
2023-05-05T19:51:14.670Z,54.85
2023-05-05T19:53:42.295Z,53.70
2023-05-05T19:56:09.162Z,53.47
2023-05-05T19:58:37.441Z,52.24
2023-05-05T20:01:05.089Z,52.94
2023-05-05T20:03:32.754Z,53.31
2023-05-05T20:06:01.429Z,54.53
2023-05-05T20:08:30.197Z,55.20
2023-05-05T20:10:58.434Z,55.37
2023-05-05T20:13:26.010Z,56.75
2023-05-05T20:15:53.654Z,56.42
2023-05-05T20:18:20.413Z,56.65
2023-05-05T20:20:49.530Z,55.49
2023-05-05T20:23:16.366Z,54.81
2023-05-05T20:25:42.988Z,54.43
2023-05-05T20:28:10.559Z,53.16
2023-05-05T20:30:38.150Z,51.84
2023-05-05T20:33:07.264Z,53.06
2023-05-05T20:35:34.361Z,51.48
2023-05-05T20:38:03.376Z,51.52
2023-05-05T20:40:30.843Z,52.79
2023-05-05T20:42:58.188Z,52.26
2023-05-05T20:45:25.221Z,51.83
2023-05-05T20:47:52.403Z,54.23
2023-05-05T20:50:21.300Z,56.10
2023-05-05T20:52:48.561Z,55.13
2023-05-05T20:55:16.205Z,53.01
2023-05-05T20:57:43.793Z,52.93
2023-05-05T21:00:13.031Z,54.02
2023-05-05T21:02:41.462Z,54.06
2023-05-05T21:05:09.893Z,55.39
2023-05-05T21:07:37.524Z,56.42
2023-05-05T21:10:06.169Z,57.61
2023-05-05T21:12:34.774Z,58.23
2023-05-05T21:15:03.332Z,58.14
2023-05-05T21:17:31.937Z,56.76
2023-05-05T21:19:59.575Z,57.66
2023-05-05T21:22:27.157Z,66.99
2023-05-05T21:24:55.768Z,66.61
2023-05-05T21:27:22.523Z,67.28
2023-05-05T21:29:49.361Z,67.60
2023-05-05T21:32:16.837Z,68.64
2023-05-05T21:34:44.452Z,66.42
2023-05-05T21:37:12.002Z,71.51
2023-05-05T21:39:41.845Z,66.05
2023-05-05T21:42:10.214Z,66.59
2023-05-05T21:44:39.166Z,66.68
2023-05-05T21:47:07.412Z,66.71
2023-05-05T21:49:35.989Z,67.65
2023-05-05T21:52:03.590Z,67.11
2023-05-05T21:54:31.255Z,67.25
2023-05-05T21:56:59.779Z,66.90
2023-05-05T21:59:28.839Z,66.64
2023-05-05T22:01:57.098Z,67.89
2023-05-05T22:04:23.954Z,68.32
2023-05-05T22:06:53.082Z,67.63
2023-05-05T22:09:20.749Z,68.83
2023-05-05T22:11:48.341Z,69.37
2023-05-05T22:14:15.953Z,66.23
2023-05-05T22:16:44.553Z,67.53
2023-05-05T22:19:12.105Z,67.36
2023-05-05T22:21:40.788Z,68.33
2023-05-05T22:24:08.309Z,65.33
2023-05-05T22:26:35.147Z,64.42
2023-05-05T22:29:03.522Z,67.09
2023-05-05T22:31:31.159Z,66.55
2023-05-05T22:33:58.681Z,67.89
2023-05-05T22:36:26.514Z,65.67
2023-05-05T22:38:53.895Z,66.80
2023-05-05T22:41:21.510Z,65.42
2023-05-05T22:43:49.046Z,63.70
2023-05-05T22:46:17.665Z,64.15
2023-05-05T22:48:46.425Z,65.48
2023-05-05T22:51:13.839Z,67.42
2023-05-05T22:53:42.429Z,68.56
2023-05-05T22:56:10.022Z,67.93
2023-05-05T22:58:38.652Z,66.48
2023-05-05T23:01:06.278Z,66.14
2023-05-05T23:03:33.830Z,65.93
2023-05-05T23:06:01.443Z,65.86
2023-05-05T23:08:29.029Z,66.11
2023-05-05T23:10:58.125Z,65.52
2023-05-05T23:13:25.304Z,67.04
2023-05-05T23:15:53.982Z,65.72
2023-05-05T23:18:22.587Z,63.82
2023-05-05T23:20:50.181Z,63.11
2023-05-05T23:23:18.968Z,64.20
2023-05-05T23:25:47.703Z,66.35
2023-05-05T23:28:16.752Z,67.38
2023-05-05T23:30:45.628Z,67.56
2023-05-05T23:33:14.665Z,68.40
2023-05-05T23:35:41.768Z,67.32
2023-05-05T23:38:09.395Z,66.42
2023-05-05T23:40:37.099Z,66.90
2023-05-05T23:43:04.555Z,66.67
2023-05-05T23:45:31.165Z,67.47
2023-05-05T23:47:57.802Z,67.50
2023-05-05T23:50:25.356Z,66.45
2023-05-05T23:52:54.728Z,66.35
2023-05-05T23:55:21.577Z,66.36
2023-05-05T23:57:49.136Z,66.47
